Aeroporto :
LOGIN :

Iscrizione | Disclaimer

   EN    FR    IT 

 










Sommario :    VFR   VFR Marginale   IFR   IFR Intensivo   IFR Molto Intensivo
Visibilità : 
Base nubi : 
>= 8 km
>= 3000ft
5 / 8 km
1000 / 3000 ft
1500m / 5 km
500 / 1000 ft
800 / 1500m
200 / 500 ft
< 800m
< 200 ft
Simboli :   Temporali  Nebbia  Neve Forte  Precipitazioni Forti  Vento > 20 kt
SIGMETs :   Varie  Temporali  Ghiacco  Turbolenza  Onda orograficha  Ceneri Vulcaniche






- Altitudine del aeroporto : 412 ft
- Codice IATA : KGS


LGKO - Ippokratis

ULTIMO METAR :
  • 072320Z 03005KT 9999 FEW020 13/10 Q1014

METARs OBSOLETI :
  • 072250Z 03006KT 9999 FEW020 13/10 Q1014
  • 072220Z 02006KT 9999 FEW020 13/10 Q1014
  • 072150Z 02006KT 9999 FEW020 13/10 Q1014
  • 072120Z 02007KT 9999 FEW020 13/10 Q1015
  • 072050Z 36005KT 9999 FEW020 13/10 Q1015

TAF TAF LGKO
Valido dal 08 a 00 ore il 09 a 00 ore UTC


072300Z 0800/0824 35012KT 9999 FEW020 BKN050
PROB30
TEMPO 0815/0824 5000 RA SCT015 BKN025



MetMap, La meteo Aeronautica in un colpo d'occhio ! - Copyright ORBIFLY Dicembre 2007 - Disclaimer

ORBIFLY MET'MAP TEAM :

Programmazione e sviluppo : Alexandra Zaïnal
Concezione : Baudouin d'Aumeries
Aiuto per la programmazione : Marc-Olivier Méhu
Supporto tecnico e logistico : Manuel Goepfert
Aiuto per la traduzione : Arnaldo La Scala

Contatto : metmap@orbifly.com




FONTI E CREDITI :

   NOAA